Santa Luz, Brazil
Current Conditions -  °F | °C
As of 8:00 AM on Thursday 23 Oct 2014 (Local Time) from SBPL Reporting Station
Broken Clouds Broken Clouds  
Wind Chill: 81°   Ceiling: 3000
Heat Index: 82°   Visibility: 6mi
Dew Point: 63°   Wind: 9mph
Humidity: 54%   Direction: 140°SE
Pressure: 30.09"   Gusts: NA
Location:  8.95°S, 44.13°W
Report Text: SBPL 231100Z 14008KT 9999 BKN030 27/17 Q1019
Loading
Personal Weather Stations






























Interactive Weather Map
Tropical Storm Tracking
New forecast layout! Learn more

10-Day Weather Forecast

Advertisements
Track Severe Weather on mobile